createdAt,value
2017-07-17T00:01:40.711Z,19.90
2017-07-17T00:04:08.247Z,19.90
2017-07-17T00:06:35.716Z,19.90
2017-07-17T00:09:03.254Z,19.90
2017-07-17T00:11:30.745Z,19.90
2017-07-17T00:13:58.233Z,19.90
2017-07-17T00:16:25.731Z,19.90
2017-07-17T00:18:53.232Z,19.90
2017-07-17T00:21:20.734Z,19.80
2017-07-17T00:23:48.244Z,19.80
2017-07-17T00:26:15.731Z,19.80
2017-07-17T00:28:44.005Z,19.80
2017-07-17T00:31:12.427Z,19.70
2017-07-17T00:33:39.909Z,19.80
2017-07-17T00:36:07.410Z,19.80
2017-07-17T00:38:35.713Z,19.80
2017-07-17T00:41:03.200Z,19.70
2017-07-17T00:43:30.670Z,19.80
2017-07-17T00:45:58.184Z,19.80
2017-07-17T00:48:26.597Z,19.70
2017-07-17T00:50:54.101Z,19.60
2017-07-17T00:53:22.392Z,19.50
2017-07-17T00:55:50.129Z,19.50
2017-07-17T00:58:17.843Z,19.50
2017-07-17T01:00:45.456Z,19.40
2017-07-17T01:03:12.950Z,19.40
2017-07-17T01:05:40.448Z,19.30
2017-07-17T01:08:08.035Z,19.30
2017-07-17T01:10:35.528Z,19.30
2017-07-17T01:13:03.025Z,19.30
2017-07-17T01:15:30.555Z,19.30
2017-07-17T01:17:58.051Z,19.40
2017-07-17T01:20:25.544Z,19.40
2017-07-17T01:22:53.819Z,19.40
2017-07-17T01:25:22.093Z,19.40
2017-07-17T01:27:50.339Z,19.40
2017-07-17T01:30:18.639Z,19.40
2017-07-17T01:32:46.935Z,19.40
2017-07-17T01:35:14.435Z,19.40
2017-07-17T01:37:41.980Z,19.40
2017-07-17T01:40:09.493Z,19.40
2017-07-17T01:42:36.997Z,19.40
2017-07-17T01:45:04.523Z,19.40
2017-07-17T01:47:32.803Z,19.40
2017-07-17T01:50:01.075Z,19.40
2017-07-17T01:52:29.360Z,19.40
2017-07-17T01:54:56.935Z,19.40
2017-07-17T01:57:24.423Z,19.40
2017-07-17T01:59:52.031Z,19.40
2017-07-17T02:02:20.286Z,19.50
2017-07-17T02:04:47.793Z,19.50
2017-07-17T02:07:15.308Z,19.50
2017-07-17T02:09:42.915Z,19.50
2017-07-17T02:12:10.401Z,19.60
2017-07-17T02:14:38.861Z,19.60
2017-07-17T02:17:06.363Z,19.50
2017-07-17T02:19:33.984Z,19.60
2017-07-17T02:22:01.490Z,19.50
2017-07-17T02:24:29.341Z,19.50
2017-07-17T02:26:56.849Z,19.50
2017-07-17T02:29:24.419Z,19.50
2017-07-17T02:31:51.981Z,19.50
2017-07-17T02:34:19.484Z,19.50
2017-07-17T02:36:47.006Z,19.40
2017-07-17T02:39:14.521Z,19.40
2017-07-17T02:41:42.773Z,19.40
2017-07-17T02:44:10.324Z,19.40
2017-07-17T02:46:37.830Z,19.40
2017-07-17T02:49:05.327Z,19.40
2017-07-17T02:51:32.838Z,19.40
2017-07-17T02:54:01.113Z,19.30
2017-07-17T02:56:29.371Z,19.40
2017-07-17T02:58:56.957Z,19.40
2017-07-17T03:01:25.246Z,19.40
2017-07-17T03:03:52.764Z,19.40
2017-07-17T03:06:20.328Z,19.40
2017-07-17T03:08:47.828Z,19.40
2017-07-17T03:11:15.315Z,19.40
2017-07-17T03:13:42.848Z,19.40
2017-07-17T03:16:10.340Z,19.40
2017-07-17T03:18:37.846Z,19.40
2017-07-17T03:21:05.377Z,19.40
2017-07-17T03:23:55.733Z,19.30
2017-07-17T03:26:23.232Z,19.30
2017-07-17T03:28:50.724Z,19.30
2017-07-17T03:31:18.209Z,19.20
2017-07-17T03:33:45.729Z,19.20
2017-07-17T03:36:13.987Z,19.20
2017-07-17T03:38:41.485Z,19.20
2017-07-17T03:41:09.004Z,19.20
2017-07-17T03:43:36.504Z,19.20
2017-07-17T03:46:03.988Z,19.20
2017-07-17T03:48:31.494Z,19.30
2017-07-17T03:50:59.768Z,19.20
2017-07-17T03:53:28.073Z,19.20
2017-07-17T03:55:55.588Z,19.10
2017-07-17T03:58:23.884Z,19.30
2017-07-17T04:00:52.162Z,19.30
2017-07-17T04:03:20.747Z,19.30
2017-07-17T04:05:49.007Z,19.30
2017-07-17T04:08:16.511Z,19.30
2017-07-17T04:10:44.065Z,19.40
2017-07-17T04:13:11.639Z,19.40
2017-07-17T04:15:39.137Z,19.50
2017-07-17T04:18:06.642Z,19.60
2017-07-17T04:20:34.181Z,19.50
2017-07-17T04:23:01.652Z,19.60
2017-07-17T04:25:29.166Z,19.50
2017-07-17T04:27:56.699Z,19.50
2017-07-17T04:30:24.178Z,19.60
2017-07-17T04:32:51.727Z,19.60
2017-07-17T04:35:19.251Z,19.50
2017-07-17T04:37:46.750Z,19.40
2017-07-17T04:40:14.287Z,19.40
2017-07-17T04:42:41.845Z,19.50
2017-07-17T04:45:09.344Z,19.50
2017-07-17T04:47:36.945Z,19.60
2017-07-17T04:50:04.463Z,19.60
2017-07-17T04:52:31.974Z,19.70
2017-07-17T04:54:59.485Z,19.70
2017-07-17T04:57:27.009Z,19.90
2017-07-17T04:59:54.509Z,20.00
2017-07-17T05:02:22.022Z,19.90
2017-07-17T05:04:49.538Z,19.70
2017-07-17T05:07:17.803Z,20.00
2017-07-17T05:09:45.319Z,20.00
2017-07-17T05:12:12.856Z,20.10
2017-07-17T05:14:40.358Z,19.90
2017-07-17T05:17:07.873Z,19.90
2017-07-17T05:19:35.442Z,19.90
2017-07-17T05:22:03.007Z,19.60
2017-07-17T05:24:30.500Z,19.70
2017-07-17T05:26:57.990Z,19.50
2017-07-17T05:29:26.280Z,19.70
2017-07-17T05:31:53.826Z,19.70
2017-07-17T05:34:22.095Z,19.60
2017-07-17T05:36:50.359Z,19.70
2017-07-17T05:39:18.108Z,19.70
2017-07-17T05:41:45.622Z,19.80
2017-07-17T05:44:13.190Z,19.80
2017-07-17T05:46:40.760Z,19.70
2017-07-17T05:49:08.252Z,19.70
2017-07-17T05:51:35.771Z,19.80
2017-07-17T05:54:03.330Z,19.80
2017-07-17T05:56:30.876Z,19.90
2017-07-17T05:58:58.385Z,19.90
2017-07-17T06:01:25.937Z,19.80
2017-07-17T06:03:53.447Z,19.80
2017-07-17T06:06:20.973Z,19.50
2017-07-17T06:08:49.305Z,19.80
2017-07-17T06:11:16.804Z,19.80
2017-07-17T06:13:44.316Z,19.80
2017-07-17T06:16:11.907Z,19.70
2017-07-17T06:18:39.406Z,19.80
2017-07-17T06:21:07.715Z,20.00
2017-07-17T06:23:35.253Z,20.00
2017-07-17T06:26:03.532Z,19.70
2017-07-17T06:28:31.807Z,19.90
2017-07-17T06:31:06.123Z,19.90
2017-07-17T06:33:34.440Z,20.20
2017-07-17T06:36:01.936Z,20.20
2017-07-17T06:38:29.468Z,20.20
2017-07-17T06:40:56.977Z,20.40
2017-07-17T06:43:25.289Z,20.30
2017-07-17T06:45:52.831Z,20.30
2017-07-17T06:48:20.317Z,20.20
2017-07-17T06:50:47.806Z,20.20
2017-07-17T06:53:15.342Z,20.20
2017-07-17T06:55:42.889Z,20.10
2017-07-17T06:58:10.381Z,20.20
2017-07-17T07:00:37.894Z,20.40
2017-07-17T07:03:05.393Z,20.60
2017-07-17T07:05:32.879Z,20.40
2017-07-17T07:08:01.156Z,19.80
2017-07-17T07:10:29.414Z,20.00
2017-07-17T07:12:56.902Z,20.00
2017-07-17T07:15:25.190Z,19.90
2017-07-17T07:17:52.774Z,19.80
2017-07-17T07:20:20.290Z,19.90
2017-07-17T07:22:48.584Z,19.60
2017-07-17T07:25:16.211Z,19.60
2017-07-17T07:27:43.731Z,20.00
2017-07-17T07:30:11.568Z,20.10
2017-07-17T07:32:39.092Z,20.10
2017-07-17T07:35:06.617Z,20.60
2017-07-17T07:37:34.161Z,20.90
2017-07-17T07:40:01.692Z,20.40
2017-07-17T07:42:29.976Z,20.80
2017-07-17T07:44:58.211Z,20.80
2017-07-17T07:47:25.728Z,20.80
2017-07-17T07:49:53.382Z,21.00
2017-07-17T07:52:20.901Z,21.60
2017-07-17T07:54:48.384Z,21.70
2017-07-17T07:57:16.650Z,21.50
2017-07-17T07:59:44.153Z,21.50
2017-07-17T08:02:11.680Z,21.50
2017-07-17T08:04:39.998Z,21.70
2017-07-17T08:07:07.574Z,21.70
2017-07-17T08:09:35.077Z,22.20
2017-07-17T08:12:03.361Z,22.20
2017-07-17T08:14:31.128Z,22.10
2017-07-17T08:16:58.625Z,22.40
2017-07-17T08:19:26.115Z,23.00
2017-07-17T08:21:53.655Z,23.30
2017-07-17T08:24:21.189Z,23.20
2017-07-17T08:26:48.963Z,22.30
2017-07-17T08:29:17.392Z,22.70
2017-07-17T08:31:44.928Z,22.70
2017-07-17T08:34:12.419Z,23.20
2017-07-17T08:36:40.702Z,23.20
2017-07-17T08:39:09.014Z,22.90
2017-07-17T08:41:36.570Z,22.90
2017-07-17T08:44:04.120Z,22.90
2017-07-17T08:46:31.682Z,23.10
2017-07-17T08:48:59.252Z,23.40
2017-07-17T08:51:26.861Z,23.50
2017-07-17T08:53:54.356Z,23.50
2017-07-17T08:56:21.887Z,23.10
2017-07-17T08:58:50.209Z,22.60
2017-07-17T09:01:17.845Z,22.60
2017-07-17T09:03:45.422Z,22.40
2017-07-17T09:06:12.960Z,22.30
2017-07-17T09:08:40.450Z,22.20
2017-07-17T09:11:07.998Z,22.40
2017-07-17T09:13:35.519Z,22.60
2017-07-17T09:16:03.772Z,23.00
2017-07-17T09:18:31.265Z,23.00
2017-07-17T09:20:59.884Z,23.30
2017-07-17T09:23:27.421Z,23.30
2017-07-17T09:25:54.912Z,23.20
2017-07-17T09:28:22.445Z,23.20
2017-07-17T09:30:50.221Z,23.30
2017-07-17T09:33:17.745Z,23.20
2017-07-17T09:35:46.031Z,23.50
2017-07-17T09:38:13.535Z,23.50
2017-07-17T09:40:42.061Z,23.90
2017-07-17T09:43:10.346Z,24.10
2017-07-17T09:45:39.523Z,24.10
2017-07-17T09:48:07.019Z,24.10
2017-07-17T09:50:34.552Z,23.90
2017-07-17T09:53:02.806Z,23.20
2017-07-17T09:55:30.318Z,23.20
2017-07-17T09:57:58.707Z,23.60
2017-07-17T10:00:26.266Z,23.70
2017-07-17T10:02:53.805Z,23.80
2017-07-17T10:05:21.324Z,23.80
2017-07-17T10:07:48.826Z,22.80
2017-07-17T10:10:16.404Z,22.90
2017-07-17T10:12:44.245Z,23.00
2017-07-17T10:15:11.798Z,23.00
2017-07-17T10:17:39.278Z,23.60
2017-07-17T10:20:06.805Z,23.60
2017-07-17T10:22:35.085Z,23.30
2017-07-17T10:25:02.669Z,23.30
2017-07-17T10:27:30.190Z,23.70
2017-07-17T10:29:57.700Z,24.20
2017-07-17T10:32:25.189Z,24.70
2017-07-17T10:34:52.704Z,25.10
2017-07-17T10:37:20.193Z,26.00
2017-07-17T10:39:47.709Z,25.60
2017-07-17T10:42:17.125Z,25.40
2017-07-17T10:44:44.668Z,25.40
2017-07-17T10:47:12.933Z,25.60
2017-07-17T10:55:17.660Z,25.70
2017-07-17T10:57:45.191Z,25.80
2017-07-17T11:00:12.670Z,25.60
2017-07-17T11:02:40.805Z,26.00
2017-07-17T11:05:09.084Z,24.80
2017-07-17T11:07:37.345Z,25.10
2017-07-17T11:10:05.622Z,25.90
2017-07-17T11:12:34.029Z,25.90
2017-07-17T11:15:01.543Z,25.90
2017-07-17T11:17:29.032Z,26.00
2017-07-17T11:19:57.317Z,25.50
2017-07-17T11:22:25.575Z,25.00
2017-07-17T11:24:54.150Z,24.70
2017-07-17T11:27:22.445Z,24.90
2017-07-17T11:29:50.693Z,24.90
2017-07-17T11:32:18.192Z,24.90
2017-07-17T11:34:45.702Z,24.80
2017-07-17T11:37:13.187Z,25.10
2017-07-17T11:39:41.459Z,25.70
2017-07-17T11:42:08.992Z,25.70
2017-07-17T11:44:36.488Z,26.00
2017-07-17T11:57:16.381Z,27.60
2017-07-17T11:59:43.923Z,27.30
2017-07-17T12:02:11.423Z,27.90
2017-07-17T12:04:39.754Z,30.40
2017-07-17T12:07:07.291Z,30.40
2017-07-17T12:09:34.823Z,31.30
2017-07-17T12:12:03.134Z,30.90
2017-07-17T12:14:30.648Z,30.90
2017-07-17T12:16:58.143Z,29.20
2017-07-17T12:19:25.675Z,29.70
2017-07-17T12:21:53.988Z,30.40
2017-07-17T12:24:22.126Z,30.40
2017-07-17T12:26:50.402Z,28.50
2017-07-17T12:29:18.692Z,28.10
2017-07-17T12:31:46.192Z,28.10
2017-07-17T12:34:13.678Z,27.50
2017-07-17T12:36:41.190Z,28.00
2017-07-17T12:39:08.681Z,28.40
2017-07-17T12:41:36.205Z,28.20
2017-07-17T12:44:03.738Z,28.00
2017-07-17T12:46:31.979Z,28.50
2017-07-17T12:48:59.495Z,28.40
2017-07-17T12:51:26.991Z,28.30
2017-07-17T12:53:55.210Z,28.40
2017-07-17T12:56:23.499Z,28.80
2017-07-17T12:58:51.087Z,28.70
2017-07-17T13:01:19.691Z,28.20
2017-07-17T13:03:47.195Z,30.20
2017-07-17T13:06:14.770Z,30.40
2017-07-17T13:08:42.292Z,29.70
2017-07-17T13:11:09.884Z,33.20
2017-07-17T13:13:37.421Z,35.50
2017-07-17T13:16:05.667Z,38.80
2017-07-17T13:18:33.195Z,38.70
2017-07-17T13:21:00.840Z,39.10
2017-07-17T13:23:28.412Z,39.50
2017-07-17T13:25:55.913Z,39.00
2017-07-17T13:28:23.421Z,37.50
2017-07-17T13:30:50.935Z,34.80
2017-07-17T13:33:18.452Z,33.50
2017-07-17T13:35:45.988Z,31.80
2017-07-17T13:38:13.485Z,30.90
2017-07-17T13:40:40.996Z,30.10
2017-07-17T13:43:09.284Z,31.10
2017-07-17T13:45:36.874Z,31.10
2017-07-17T13:48:04.410Z,30.90
2017-07-17T13:50:31.972Z,31.90
2017-07-17T13:52:59.470Z,32.40
2017-07-17T13:55:27.117Z,34.30
2017-07-17T13:57:54.627Z,35.20
2017-07-17T14:00:22.897Z,34.20
2017-07-17T14:02:50.488Z,34.20
2017-07-17T14:05:18.064Z,33.20
2017-07-17T14:07:45.562Z,33.50
2017-07-17T14:10:13.092Z,34.40
2017-07-17T14:12:40.673Z,33.80
2017-07-17T14:15:08.173Z,34.40
2017-07-17T14:17:36.454Z,36.50
2017-07-17T14:20:04.058Z,36.40
2017-07-17T14:22:31.576Z,37.40
2017-07-17T14:24:59.109Z,35.60
2017-07-17T14:27:26.615Z,32.70
2017-07-17T14:29:54.118Z,31.90
2017-07-17T14:32:21.726Z,31.20
2017-07-17T14:34:49.253Z,29.60
2017-07-17T14:37:17.507Z,29.40
2017-07-17T14:39:45.001Z,29.30
2017-07-17T14:42:13.335Z,30.50
2017-07-17T14:44:40.849Z,30.50
2017-07-17T14:47:08.453Z,30.30
2017-07-17T14:49:36.067Z,30.20
2017-07-17T14:52:04.918Z,30.10
2017-07-17T14:54:33.237Z,30.00
2017-07-17T14:57:00.738Z,29.90
2017-07-17T14:59:28.265Z,29.90
2017-07-17T15:01:55.767Z,29.80
2017-07-17T15:04:23.290Z,29.10
2017-07-17T15:06:50.812Z,28.60
2017-07-17T15:09:19.073Z,28.00
2017-07-17T15:11:46.600Z,27.90
2017-07-17T15:14:14.117Z,27.80
2017-07-17T15:16:42.389Z,28.70
2017-07-17T15:19:10.642Z,29.80
2017-07-17T15:21:38.156Z,29.90
2017-07-17T15:24:05.656Z,31.30
2017-07-17T15:26:33.142Z,32.90
2017-07-17T15:29:00.754Z,34.10
2017-07-17T15:31:28.252Z,36.30
2017-07-17T15:33:55.749Z,37.50
2017-07-17T15:36:23.285Z,38.70
2017-07-17T15:38:50.793Z,39.10
2017-07-17T15:41:18.267Z,37.40
2017-07-17T15:43:45.810Z,36.40
2017-07-17T15:46:13.314Z,35.70
2017-07-17T15:48:41.586Z,31.70
2017-07-17T15:51:09.885Z,30.70
2017-07-17T15:53:37.422Z,30.70
2017-07-17T15:56:05.683Z,32.40
2017-07-17T15:58:33.210Z,32.40
2017-07-17T16:01:00.725Z,32.40
2017-07-17T16:03:29.003Z,29.90
2017-07-17T16:05:58.040Z,28.50
2017-07-17T16:08:25.594Z,28.40
2017-07-17T16:10:53.138Z,27.90
2017-07-17T16:13:20.651Z,27.20
2017-07-17T16:15:48.226Z,26.70
2017-07-17T16:18:16.555Z,25.70
2017-07-17T16:20:44.107Z,25.70
2017-07-17T16:23:11.622Z,25.60
2017-07-17T16:25:39.122Z,25.80
2017-07-17T16:28:06.660Z,25.90
2017-07-17T16:30:35.054Z,25.90
2017-07-17T16:33:02.579Z,25.60
2017-07-17T16:35:30.858Z,25.40
2017-07-17T16:37:59.120Z,25.30
2017-07-17T16:40:26.744Z,25.30
2017-07-17T16:42:54.265Z,25.40
2017-07-17T16:45:22.534Z,25.30
2017-07-17T16:47:50.812Z,25.10
2017-07-17T16:50:19.128Z,25.10
2017-07-17T16:52:46.646Z,25.10
2017-07-17T16:55:14.946Z,24.90
2017-07-17T16:57:42.481Z,24.90
2017-07-17T17:00:10.060Z,24.70
2017-07-17T17:02:37.544Z,24.70
2017-07-17T17:05:05.085Z,24.50
2017-07-17T17:07:32.582Z,24.60
2017-07-17T17:10:00.098Z,24.50
2017-07-17T17:12:28.378Z,24.50
2017-07-17T17:14:55.927Z,24.30
2017-07-17T17:17:24.213Z,24.30
2017-07-17T17:19:51.753Z,24.20
2017-07-17T17:22:20.040Z,23.70
2017-07-17T17:24:48.387Z,23.50
2017-07-17T17:27:16.722Z,23.50
2017-07-17T17:29:44.224Z,23.30
2017-07-17T17:32:11.734Z,23.30
2017-07-17T17:34:39.489Z,23.30
2017-07-17T17:37:09.414Z,23.20
2017-07-17T17:39:36.965Z,23.30
2017-07-17T17:42:04.516Z,25.10
2017-07-17T17:44:32.785Z,26.20
2017-07-17T17:47:01.076Z,27.20
2017-07-17T17:49:28.620Z,27.10
2017-07-17T17:51:56.903Z,26.00
2017-07-17T17:54:25.180Z,25.30
2017-07-17T17:56:53.476Z,25.20
2017-07-17T17:59:21.020Z,25.10
2017-07-17T18:01:49.306Z,26.00
2017-07-17T18:04:16.827Z,26.00
2017-07-17T18:06:44.334Z,26.30
2017-07-17T18:09:11.908Z,25.90
2017-07-17T18:11:39.483Z,27.30
2017-07-17T18:14:07.075Z,28.20
2017-07-17T18:16:34.672Z,28.80
2017-07-17T18:19:02.338Z,29.20
2017-07-17T18:24:22.577Z,28.40
2017-07-17T18:26:52.012Z,26.10
2017-07-17T18:29:43.205Z,25.50
2017-07-17T18:32:10.720Z,24.90
2017-07-17T18:43:09.829Z,23.20
2017-07-17T18:45:37.373Z,22.90
2017-07-17T18:48:04.895Z,22.80
2017-07-17T18:50:32.401Z,22.50
2017-07-17T18:52:59.932Z,22.40
2017-07-17T18:55:27.435Z,22.20
2017-07-17T18:57:54.925Z,21.80
2017-07-17T19:00:22.712Z,21.70
2017-07-17T19:02:50.238Z,21.60
2017-07-17T19:05:17.739Z,21.50
2017-07-17T19:07:45.285Z,21.40
2017-07-17T19:10:12.789Z,21.30
2017-07-17T19:12:40.352Z,21.20
2017-07-17T19:15:07.950Z,21.00
2017-07-17T19:17:35.457Z,21.00
2017-07-17T19:20:02.958Z,20.80
2017-07-17T19:22:31.332Z,20.60
2017-07-17T19:24:58.883Z,20.60
2017-07-17T19:27:26.385Z,20.50
2017-07-17T19:29:53.910Z,20.50
2017-07-17T19:32:22.212Z,20.40
2017-07-17T19:34:49.735Z,20.30
2017-07-17T19:37:18.143Z,20.10
2017-07-17T19:39:45.637Z,20.00
2017-07-17T19:42:13.176Z,20.00
2017-07-17T19:44:40.724Z,19.90
2017-07-17T19:47:08.280Z,19.80
2017-07-17T19:49:35.803Z,19.70
2017-07-17T19:52:03.299Z,19.70
2017-07-17T19:54:30.853Z,19.60
2017-07-17T19:56:58.433Z,19.50
2017-07-17T19:59:25.958Z,19.50
2017-07-17T20:01:53.457Z,19.40
2017-07-17T20:04:21.010Z,19.40
2017-07-17T20:06:48.498Z,19.30
2017-07-17T20:09:16.028Z,19.30
2017-07-17T20:11:43.677Z,19.20
2017-07-17T20:14:11.194Z,19.10
2017-07-17T20:16:38.696Z,19.00
2017-07-17T20:19:06.251Z,19.00
2017-07-17T20:21:33.779Z,19.00
2017-07-17T20:24:01.295Z,18.90
2017-07-17T20:26:29.029Z,18.80
2017-07-17T20:28:56.553Z,18.80
2017-07-17T20:31:24.176Z,18.70
2017-07-17T20:33:51.689Z,18.60
2017-07-17T20:36:19.968Z,18.40
2017-07-17T20:38:48.275Z,18.30
2017-07-17T20:41:15.843Z,18.30
2017-07-17T20:43:43.376Z,18.30
2017-07-17T20:46:11.639Z,18.00
2017-07-17T20:48:39.968Z,17.90
2017-07-17T20:51:07.490Z,17.90
2017-07-17T20:53:35.758Z,17.90
2017-07-17T20:56:04.065Z,17.90
2017-07-17T20:58:31.576Z,17.90
2017-07-17T21:00:59.143Z,17.90
2017-07-17T21:03:27.433Z,17.70
2017-07-17T21:05:55.740Z,17.70
2017-07-17T21:08:23.263Z,17.70
2017-07-17T21:10:50.812Z,17.70
2017-07-17T21:13:18.351Z,17.70
2017-07-17T21:15:45.889Z,17.70
2017-07-17T21:18:13.386Z,17.60
2017-07-17T21:20:41.676Z,17.60
2017-07-17T21:23:09.986Z,17.60
2017-07-17T21:25:37.502Z,17.60
2017-07-17T21:28:05.018Z,17.60
2017-07-17T21:30:32.541Z,17.60
2017-07-17T21:33:00.811Z,17.60
2017-07-17T21:35:29.091Z,17.60
2017-07-17T21:37:57.877Z,17.70
2017-07-17T21:40:26.203Z,17.80
2017-07-17T21:42:53.754Z,17.80
2017-07-17T21:45:21.274Z,17.80
2017-07-17T21:47:49.561Z,17.60
2017-07-17T21:50:17.837Z,17.70
2017-07-17T21:52:46.134Z,17.50
2017-07-17T21:55:13.637Z,17.50
2017-07-17T21:57:41.169Z,17.40
2017-07-17T22:00:08.694Z,17.30
2017-07-17T22:02:37.051Z,17.30
2017-07-17T22:05:05.328Z,17.20
2017-07-17T22:07:33.618Z,17.20
2017-07-17T22:10:01.929Z,17.20
2017-07-17T22:12:29.462Z,17.20
2017-07-17T22:14:57.764Z,17.00
2017-07-17T22:17:25.265Z,17.00
2017-07-17T22:19:52.789Z,17.00
2017-07-17T22:22:20.350Z,16.90
2017-07-17T22:24:47.855Z,16.90
2017-07-17T22:27:15.431Z,16.90
2017-07-17T22:29:43.742Z,16.90
2017-07-17T22:32:11.259Z,16.90
2017-07-17T22:34:38.750Z,16.90
2017-07-17T22:37:06.317Z,17.00
2017-07-17T22:39:33.866Z,17.10
2017-07-17T22:42:01.372Z,17.10
2017-07-17T22:44:28.967Z,17.10
2017-07-17T22:46:57.230Z,17.30
2017-07-17T22:49:25.511Z,17.30
2017-07-17T22:51:53.040Z,17.30
2017-07-17T22:54:20.570Z,17.30
2017-07-17T22:56:48.129Z,17.20
2017-07-17T22:59:15.665Z,17.10
2017-07-17T23:01:43.168Z,17.10
2017-07-17T23:04:10.687Z,17.10
2017-07-17T23:06:38.184Z,17.00
2017-07-17T23:09:05.713Z,17.10
2017-07-17T23:11:33.287Z,17.10
2017-07-17T23:14:00.826Z,17.10
2017-07-17T23:16:28.342Z,17.10
2017-07-17T23:18:55.874Z,17.10
2017-07-17T23:21:23.401Z,17.20
2017-07-17T23:23:51.617Z,17.20
2017-07-17T23:26:19.121Z,17.30
2017-07-17T23:28:47.429Z,17.40
2017-07-17T23:31:15.395Z,17.30
2017-07-17T23:33:42.922Z,17.30
2017-07-17T23:36:11.222Z,17.40
2017-07-17T23:38:38.749Z,17.40
2017-07-17T23:41:06.246Z,17.40
2017-07-17T23:43:33.786Z,17.30
2017-07-17T23:46:02.060Z,17.10
2017-07-17T23:48:30.325Z,17.00
2017-07-17T23:50:57.858Z,17.00
2017-07-17T23:53:26.407Z,17.00
2017-07-17T23:55:53.905Z,16.90
2017-07-17T23:58:21.440Z,16.90
